createdAt,value
2016-07-31T00:00:00.090Z,19.48
2016-07-31T00:01:00.072Z,19.49
2016-07-31T00:02:00.054Z,19.47
2016-07-31T00:03:00.031Z,19.48
2016-07-31T00:04:00.013Z,19.48
2016-07-31T00:04:59.999Z,19.47
2016-07-31T00:05:59.979Z,19.48
2016-07-31T00:06:59.956Z,19.45
2016-07-31T00:07:59.943Z,19.55
2016-07-31T00:08:59.928Z,19.49
2016-07-31T00:09:59.901Z,19.56
2016-07-31T00:10:59.887Z,19.51
2016-07-31T00:11:59.869Z,19.64
2016-07-31T00:12:59.849Z,19.54
2016-07-31T00:13:59.831Z,19.64
2016-07-31T00:14:59.807Z,19.66
2016-07-31T00:15:59.793Z,19.67
2016-07-31T00:16:59.773Z,19.64
2016-07-31T00:17:59.757Z,19.67
2016-07-31T00:18:59.734Z,19.71
2016-07-31T00:19:59.716Z,19.66
2016-07-31T00:20:59.694Z,19.73
2016-07-31T00:21:59.680Z,19.71
2016-07-31T00:22:59.660Z,19.7
2016-07-31T00:23:59.639Z,19.73
2016-07-31T00:24:59.620Z,19.74
2016-07-31T00:25:59.603Z,19.7
2016-07-31T00:26:59.588Z,19.67
2016-07-31T00:28:59.551Z,19.71
2016-07-31T00:29:59.527Z,19.74
2016-07-31T00:30:59.510Z,19.79
2016-07-31T00:31:59.493Z,19.71
2016-07-31T00:32:59.480Z,19.76
2016-07-31T00:33:59.452Z,19.82
2016-07-31T00:34:59.432Z,19.77
2016-07-31T00:35:59.416Z,19.73
2016-07-31T00:36:59.399Z,19.69
2016-07-31T00:37:59.382Z,19.69
2016-07-31T00:38:59.362Z,19.67
2016-07-31T00:39:59.345Z,19.69
2016-07-31T00:40:59.327Z,19.73
2016-07-31T00:41:59.307Z,19.64
2016-07-31T00:43:59.266Z,19.56
2016-07-31T00:44:59.246Z,19.59
2016-07-31T00:45:59.234Z,19.55
2016-07-31T00:46:59.213Z,19.56
2016-07-31T00:47:59.884Z,19.52
2016-07-31T00:48:59.174Z,19.49
2016-07-31T00:49:59.156Z,19.49
2016-07-31T00:50:59.135Z,19.52
2016-07-31T00:51:59.118Z,19.48
2016-07-31T00:52:59.098Z,19.47
2016-07-31T00:53:59.081Z,19.48
2016-07-31T00:54:59.061Z,19.48
2016-07-31T00:55:59.044Z,19.4
2016-07-31T00:56:59.030Z,19.4
2016-07-31T00:58:58.986Z,19.37
2016-07-31T00:59:58.967Z,19.27
2016-07-31T01:00:58.945Z,19.29
2016-07-31T01:01:58.930Z,19.31
2016-07-31T01:02:58.908Z,19.3
2016-07-31T01:03:58.891Z,19.27
2016-07-31T01:04:58.880Z,19.19
2016-07-31T01:05:58.854Z,19.21
2016-07-31T01:06:58.832Z,19.19
2016-07-31T01:07:58.867Z,19.21
2016-07-31T01:08:58.793Z,19.09
2016-07-31T01:09:58.773Z,19.08
2016-07-31T01:10:58.756Z,19.11
2016-07-31T01:11:58.735Z,19.08
2016-07-31T01:13:58.695Z,19.12
2016-07-31T01:14:58.694Z,18.93
2016-07-31T01:15:58.657Z,19.02
2016-07-31T01:16:58.638Z,19
2016-07-31T01:17:58.616Z,19.02
2016-07-31T01:18:58.597Z,18.99
2016-07-31T01:19:58.579Z,18.99
2016-07-31T01:20:58.559Z,18.99
2016-07-31T01:21:58.541Z,18.86
2016-07-31T01:22:58.524Z,18.81
2016-07-31T01:23:58.503Z,18.84
2016-07-31T01:24:58.484Z,18.92
2016-07-31T01:25:58.462Z,18.86
2016-07-31T01:26:58.454Z,18.86
2016-07-31T01:28:58.405Z,18.84
2016-07-31T01:29:58.385Z,18.8
2016-07-31T01:30:58.368Z,18.73
2016-07-31T01:31:58.347Z,18.83
2016-07-31T01:32:59.022Z,18.75
2016-07-31T01:33:58.310Z,18.74
2016-07-31T01:34:58.286Z,18.7
2016-07-31T01:35:58.269Z,18.58
2016-07-31T01:36:58.248Z,18.71
2016-07-31T01:37:58.226Z,18.62
2016-07-31T01:38:58.216Z,18.6
2016-07-31T01:39:58.193Z,18.63
2016-07-31T01:40:58.181Z,18.62
2016-07-31T01:41:58.150Z,18.62
2016-07-31T01:42:58.132Z,18.6
2016-07-31T01:43:58.116Z,18.58
2016-07-31T01:44:58.091Z,18.63
2016-07-31T01:45:58.078Z,18.65
2016-07-31T01:46:58.054Z,18.62
2016-07-31T01:47:58.036Z,18.63
2016-07-31T01:48:58.013Z,18.65
2016-07-31T01:49:58.003Z,18.59
2016-07-31T01:50:57.986Z,18.66
2016-07-31T01:51:57.955Z,18.62
2016-07-31T01:52:57.937Z,18.62
2016-07-31T01:53:57.917Z,18.63
2016-07-31T01:54:57.898Z,18.73
2016-07-31T01:55:57.878Z,18.59
2016-07-31T01:56:57.860Z,18.65
2016-07-31T01:57:57.838Z,18.65
2016-07-31T01:58:57.818Z,18.58
2016-07-31T01:59:57.798Z,18.62
2016-07-31T02:00:57.782Z,18.7
2016-07-31T02:01:57.760Z,18.63
2016-07-31T02:02:57.739Z,18.7
2016-07-31T02:03:57.717Z,18.65
2016-07-31T02:04:57.703Z,18.63
2016-07-31T02:05:57.684Z,18.66
2016-07-31T02:06:57.662Z,18.71
2016-07-31T02:07:57.700Z,18.65
2016-07-31T02:08:57.624Z,18.66
2016-07-31T02:09:57.603Z,18.65
2016-07-31T02:10:57.585Z,18.62
2016-07-31T02:11:57.567Z,18.68
2016-07-31T02:12:57.558Z,18.68
2016-07-31T02:13:57.531Z,18.73
2016-07-31T02:14:57.505Z,18.66
2016-07-31T02:15:57.482Z,18.63
2016-07-31T02:16:57.467Z,18.71
2016-07-31T02:17:57.448Z,18.6
2016-07-31T02:18:57.430Z,18.65
2016-07-31T02:19:57.406Z,18.6
2016-07-31T02:20:57.389Z,18.66
2016-07-31T02:21:57.370Z,18.63
2016-07-31T02:22:57.349Z,18.6
2016-07-31T02:23:57.329Z,18.58
2016-07-31T02:24:57.309Z,18.7
2016-07-31T02:25:57.294Z,18.65
2016-07-31T02:26:57.274Z,18.62
2016-07-31T02:27:57.252Z,18.6
2016-07-31T02:28:57.231Z,18.62
2016-07-31T02:29:57.213Z,18.68
2016-07-31T02:30:57.193Z,18.63
2016-07-31T02:31:57.175Z,18.63
2016-07-31T02:32:57.156Z,18.66
2016-07-31T02:33:57.139Z,18.7
2016-07-31T02:34:57.116Z,18.55
2016-07-31T02:35:57.098Z,18.6
2016-07-31T02:36:57.081Z,18.55
2016-07-31T02:37:57.057Z,18.62
2016-07-31T02:38:57.733Z,18.73
2016-07-31T02:39:57.020Z,18.71
2016-07-31T02:40:57.002Z,18.59
2016-07-31T02:41:56.980Z,18.59
2016-07-31T02:42:56.962Z,18.65
2016-07-31T02:43:56.943Z,18.6
2016-07-31T02:44:56.921Z,18.71
2016-07-31T02:45:56.905Z,18.7
2016-07-31T02:46:56.879Z,18.73
2016-07-31T02:47:56.866Z,18.71
2016-07-31T02:48:56.843Z,18.8
2016-07-31T02:49:56.824Z,18.74
2016-07-31T02:50:56.806Z,18.71
2016-07-31T02:51:56.788Z,18.77
2016-07-31T02:52:56.769Z,18.78
2016-07-31T02:53:56.748Z,18.8
2016-07-31T02:54:56.731Z,18.8
2016-07-31T02:55:56.713Z,18.8
2016-07-31T02:56:56.698Z,18.75
2016-07-31T02:57:56.668Z,18.81
2016-07-31T02:58:56.650Z,18.84
2016-07-31T02:59:56.634Z,18.86
2016-07-31T03:00:56.613Z,18.83
2016-07-31T03:01:56.591Z,18.81
2016-07-31T03:02:56.573Z,18.77
2016-07-31T03:03:56.554Z,18.73
2016-07-31T03:04:56.537Z,18.81
2016-07-31T03:05:56.514Z,18.83
2016-07-31T03:06:56.539Z,18.89
2016-07-31T03:07:56.556Z,18.86
2016-07-31T03:08:56.456Z,18.84
2016-07-31T03:09:56.462Z,18.86
2016-07-31T03:10:56.449Z,18.84
2016-07-31T03:11:56.398Z,18.84
2016-07-31T03:12:56.397Z,18.86
2016-07-31T03:13:56.388Z,18.83
2016-07-31T03:14:56.364Z,18.84
2016-07-31T03:15:56.345Z,18.88
2016-07-31T03:16:56.372Z,18.83
2016-07-31T03:17:57.044Z,18.89
2016-07-31T03:18:56.297Z,18.78
2016-07-31T03:19:56.267Z,18.89
2016-07-31T03:20:56.281Z,18.86
2016-07-31T03:21:56.216Z,18.84
2016-07-31T03:22:56.222Z,18.92
2016-07-31T03:23:56.168Z,18.89
2016-07-31T03:24:56.188Z,18.9
2016-07-31T03:25:56.156Z,18.89
2016-07-31T03:26:56.115Z,18.96
2016-07-31T03:27:56.103Z,18.98
2016-07-31T03:28:56.087Z,19.02
2016-07-31T03:29:56.078Z,18.99
2016-07-31T03:30:56.076Z,19.04
2016-07-31T03:31:56.035Z,19
2016-07-31T03:32:56.007Z,18.99
2016-07-31T03:33:56.011Z,18.99
2016-07-31T03:34:55.980Z,18.99
2016-07-31T03:35:55.963Z,18.96
2016-07-31T03:36:55.963Z,19
2016-07-31T03:37:55.939Z,19
2016-07-31T03:38:55.930Z,18.99
2016-07-31T03:39:55.926Z,18.96
2016-07-31T03:40:55.874Z,18.89
2016-07-31T03:41:55.889Z,18.86
2016-07-31T03:42:55.834Z,18.89
2016-07-31T03:43:55.789Z,18.88
2016-07-31T03:44:55.811Z,18.92
2016-07-31T03:45:55.787Z,18.81
2016-07-31T03:46:55.731Z,18.84
2016-07-31T03:47:55.717Z,18.81
2016-07-31T03:48:55.696Z,18.78
2016-07-31T03:49:55.674Z,18.74
2016-07-31T03:50:55.651Z,18.73
2016-07-31T03:51:55.634Z,18.74
2016-07-31T03:52:55.616Z,18.75
2016-07-31T03:53:55.597Z,18.73
2016-07-31T03:54:55.575Z,18.63
2016-07-31T03:55:55.559Z,18.59
2016-07-31T03:56:55.540Z,18.63
2016-07-31T03:57:55.520Z,18.6
2016-07-31T03:58:55.502Z,18.66
2016-07-31T03:59:55.484Z,18.73
2016-07-31T04:00:55.464Z,18.68
2016-07-31T04:01:55.443Z,18.74
2016-07-31T04:02:55.422Z,18.77
2016-07-31T04:03:55.407Z,18.73
2016-07-31T04:04:55.387Z,18.78
2016-07-31T04:05:55.369Z,18.75
2016-07-31T04:06:55.350Z,18.84
2016-07-31T04:07:55.335Z,18.86
2016-07-31T04:08:55.311Z,18.84
2016-07-31T04:09:55.294Z,18.88
2016-07-31T04:10:55.273Z,18.9
2016-07-31T04:11:55.249Z,18.89
2016-07-31T04:12:55.234Z,18.89
2016-07-31T04:13:55.213Z,18.9
2016-07-31T04:14:55.199Z,18.89
2016-07-31T04:15:55.175Z,18.86
2016-07-31T04:16:55.154Z,18.9
2016-07-31T04:17:55.138Z,18.88
2016-07-31T04:18:55.115Z,18.88
2016-07-31T04:19:55.099Z,18.98
2016-07-31T04:20:55.081Z,18.99
2016-07-31T04:21:55.062Z,19.02
2016-07-31T04:22:55.042Z,18.95
2016-07-31T04:23:55.023Z,18.92
2016-07-31T04:24:55.003Z,18.95
2016-07-31T04:25:54.983Z,18.89
2016-07-31T04:26:54.965Z,18.89
2016-07-31T04:27:55.646Z,18.99
2016-07-31T04:28:54.928Z,18.92
2016-07-31T04:29:54.909Z,18.86
2016-07-31T04:30:55.585Z,18.95
2016-07-31T04:31:54.870Z,18.98
2016-07-31T04:32:54.852Z,18.99
2016-07-31T04:33:54.835Z,19.02
2016-07-31T04:34:54.815Z,18.93
2016-07-31T04:35:54.796Z,18.98
2016-07-31T04:36:54.776Z,18.99
2016-07-31T04:37:54.758Z,19.07
2016-07-31T04:38:54.744Z,19.02
2016-07-31T04:39:54.716Z,19.09
2016-07-31T04:40:54.710Z,19.07
2016-07-31T04:41:54.681Z,19.02
2016-07-31T04:42:54.665Z,19.14
2016-07-31T04:44:54.626Z,19.16
2016-07-31T04:45:54.605Z,19.07
2016-07-31T04:46:54.588Z,19.11
2016-07-31T04:47:54.573Z,19.26
2016-07-31T04:48:54.548Z,19.26
2016-07-31T04:49:54.534Z,19.18
2016-07-31T04:50:54.517Z,19.19
2016-07-31T04:51:54.496Z,19.26
2016-07-31T04:52:54.475Z,19.29
2016-07-31T04:53:55.155Z,19.21
2016-07-31T04:54:54.440Z,19.24
2016-07-31T04:55:54.426Z,19.27
2016-07-31T04:56:54.401Z,19.22
2016-07-31T04:57:54.385Z,19.27
2016-07-31T04:59:54.346Z,19.19
2016-07-31T05:00:54.330Z,19.21
2016-07-31T05:01:54.308Z,19.3
2016-07-31T05:02:54.291Z,19.29
2016-07-31T05:03:54.277Z,19.24
2016-07-31T05:04:54.253Z,19.3
2016-07-31T05:05:54.236Z,19.29
2016-07-31T05:06:54.217Z,19.26
2016-07-31T05:07:54.197Z,19.18
2016-07-31T05:08:54.177Z,19.19
2016-07-31T05:09:54.170Z,19.18
2016-07-31T05:10:54.142Z,19.29
2016-07-31T05:11:54.126Z,19.21
2016-07-31T05:12:54.106Z,19.31
2016-07-31T05:14:54.072Z,19.3
2016-07-31T05:15:54.051Z,19.29
2016-07-31T05:16:54.031Z,19.33
2016-07-31T05:17:54.017Z,19.29
2016-07-31T05:18:53.999Z,19.29
2016-07-31T05:19:53.974Z,19.3
2016-07-31T05:20:53.960Z,19.31
2016-07-31T05:21:53.940Z,19.39
2016-07-31T05:22:53.924Z,19.36
2016-07-31T05:23:53.913Z,19.47
2016-07-31T05:24:53.889Z,19.39
2016-07-31T05:25:53.871Z,19.49
2016-07-31T05:26:53.854Z,19.52
2016-07-31T05:27:53.837Z,19.51
2016-07-31T05:28:53.815Z,19.48
2016-07-31T05:29:53.796Z,19.49
2016-07-31T05:30:53.778Z,19.44
2016-07-31T05:31:53.765Z,19.52
2016-07-31T05:32:53.745Z,19.51
2016-07-31T05:33:53.723Z,19.54
2016-07-31T05:34:53.709Z,19.69
2016-07-31T05:35:53.688Z,19.66
2016-07-31T05:36:53.670Z,19.67
2016-07-31T05:37:53.654Z,19.7
2016-07-31T05:38:53.636Z,19.67
2016-07-31T05:39:53.618Z,19.66
2016-07-31T05:40:53.600Z,19.64
2016-07-31T05:41:53.580Z,19.74
2016-07-31T05:42:53.561Z,19.64
2016-07-31T05:43:53.553Z,19.64
2016-07-31T05:44:53.525Z,19.63
2016-07-31T05:45:53.510Z,19.66
2016-07-31T05:46:53.491Z,19.64
2016-07-31T05:47:53.474Z,19.62
2016-07-31T05:48:53.455Z,19.62
2016-07-31T05:49:53.438Z,19.73
2016-07-31T05:50:53.418Z,19.71
2016-07-31T05:51:53.401Z,19.71
2016-07-31T05:52:53.386Z,19.71
2016-07-31T05:53:53.369Z,19.76
2016-07-31T05:54:53.349Z,19.85
2016-07-31T05:55:53.334Z,19.85
2016-07-31T05:56:53.311Z,19.86
2016-07-31T05:57:53.299Z,19.86
2016-07-31T05:58:53.279Z,19.84
2016-07-31T05:59:53.260Z,19.76
2016-07-31T06:00:53.245Z,19.85
2016-07-31T06:01:53.225Z,19.89
2016-07-31T06:02:53.214Z,19.85
2016-07-31T06:03:53.194Z,19.91
2016-07-31T06:04:53.175Z,19.94
2016-07-31T06:05:53.154Z,19.91
2016-07-31T06:06:53.136Z,19.94
2016-07-31T06:07:53.118Z,19.92
2016-07-31T06:08:53.100Z,19.92
2016-07-31T06:09:53.096Z,19.95
2016-07-31T06:10:53.066Z,20.02
2016-07-31T06:11:53.050Z,19.96
2016-07-31T06:12:53.032Z,19.94
2016-07-31T06:13:53.013Z,20.06
2016-07-31T06:14:52.996Z,20.02
2016-07-31T06:15:52.980Z,20.1
2016-07-31T06:16:52.963Z,20.04
2016-07-31T06:17:52.950Z,20.21
2016-07-31T06:18:52.938Z,20.18
2016-07-31T06:19:52.911Z,20.18
2016-07-31T06:20:52.891Z,20.19
2016-07-31T06:21:52.879Z,20.16
2016-07-31T06:22:52.858Z,20.21
2016-07-31T06:23:53.536Z,20.14
2016-07-31T06:24:52.822Z,20.19
2016-07-31T06:25:52.815Z,20.13
2016-07-31T06:26:52.794Z,20.16
2016-07-31T06:27:52.773Z,20.19
2016-07-31T06:28:52.756Z,20.21
2016-07-31T06:29:52.745Z,20.28
2016-07-31T06:30:52.720Z,20.32
2016-07-31T06:31:52.702Z,20.28
2016-07-31T06:32:52.682Z,20.31
2016-07-31T06:33:52.672Z,20.4
2016-07-31T06:34:52.657Z,20.36
2016-07-31T06:35:52.637Z,20.51
2016-07-31T06:36:52.616Z,20.47
2016-07-31T06:37:52.603Z,20.47
2016-07-31T06:38:52.582Z,20.52
2016-07-31T06:39:52.565Z,20.6
2016-07-31T06:40:52.550Z,20.5
2016-07-31T06:41:52.535Z,20.59
2016-07-31T06:42:52.517Z,20.5
2016-07-31T06:43:52.501Z,20.41
2016-07-31T06:44:52.484Z,20.39
2016-07-31T06:45:52.481Z,20.39
2016-07-31T06:46:52.453Z,20.31
2016-07-31T06:47:52.433Z,20.4
2016-07-31T06:48:52.421Z,20.41
2016-07-31T06:49:52.407Z,20.47
2016-07-31T06:50:52.387Z,20.58
2016-07-31T06:51:52.370Z,20.55
2016-07-31T06:52:52.355Z,20.52
2016-07-31T06:53:52.336Z,20.58
2016-07-31T06:54:52.323Z,20.58
2016-07-31T06:55:52.308Z,20.67
2016-07-31T06:56:52.288Z,20.69
2016-07-31T06:57:52.272Z,20.7
2016-07-31T06:58:52.260Z,20.75
2016-07-31T06:59:52.239Z,20.9
2016-07-31T07:00:52.228Z,20.92
2016-07-31T07:01:52.216Z,20.93
2016-07-31T07:02:52.195Z,20.88
2016-07-31T07:03:52.183Z,20.9
2016-07-31T07:04:52.165Z,20.85
2016-07-31T07:05:52.148Z,20.95
2016-07-31T07:06:52.134Z,20.95
2016-07-31T07:07:52.117Z,20.97
2016-07-31T07:08:52.104Z,21.07
2016-07-31T07:09:52.086Z,21.07
2016-07-31T07:10:52.072Z,21.09
2016-07-31T07:11:52.052Z,21.11
2016-07-31T07:12:52.042Z,21.09
2016-07-31T07:13:52.026Z,21.11
2016-07-31T07:14:52.010Z,21.12
2016-07-31T07:15:51.993Z,21.14
2016-07-31T07:16:51.978Z,21.15
2016-07-31T07:17:51.993Z,21.11
2016-07-31T07:18:51.945Z,21.22
2016-07-31T07:19:51.933Z,21.24
2016-07-31T07:20:51.916Z,21.25
2016-07-31T07:21:52.595Z,21.25
2016-07-31T07:22:51.887Z,21.24
2016-07-31T07:23:51.868Z,21.32
2016-07-31T07:24:51.849Z,21.25
2016-07-31T07:25:51.836Z,21.27
2016-07-31T07:26:51.821Z,21.33
2016-07-31T07:27:51.801Z,21.33
2016-07-31T07:28:51.789Z,21.33
2016-07-31T07:29:51.774Z,21.3
2016-07-31T07:30:51.760Z,21.36
2016-07-31T07:31:51.753Z,21.37
2016-07-31T07:32:51.729Z,21.36
2016-07-31T07:33:51.713Z,21.39
2016-07-31T07:34:51.699Z,21.3
2016-07-31T07:35:51.681Z,21.32
2016-07-31T07:36:51.664Z,21.24
2016-07-31T07:37:51.653Z,21.27
2016-07-31T07:38:52.325Z,21.35
2016-07-31T07:39:51.618Z,21.33
2016-07-31T07:40:51.604Z,21.18
2016-07-31T07:41:51.591Z,21.11
2016-07-31T07:42:51.574Z,21.17
2016-07-31T07:43:51.557Z,21.15
2016-07-31T07:44:51.542Z,21.14
2016-07-31T07:45:51.527Z,21.2
2016-07-31T07:46:51.512Z,21.27
2016-07-31T07:47:51.491Z,21.36
2016-07-31T07:48:51.487Z,21.48
2016-07-31T07:49:51.467Z,21.45
2016-07-31T07:50:51.448Z,21.62
2016-07-31T07:51:51.435Z,21.75
2016-07-31T07:52:51.421Z,21.85
2016-07-31T07:53:51.404Z,21.95
2016-07-31T07:54:51.394Z,21.98
2016-07-31T07:55:51.375Z,22.15
2016-07-31T07:56:51.360Z,22.23
2016-07-31T07:57:51.350Z,22.1
2016-07-31T07:58:51.335Z,22.14
2016-07-31T07:59:51.320Z,22.1
2016-07-31T08:00:51.306Z,22.06
2016-07-31T08:01:51.293Z,22.07
2016-07-31T08:02:51.275Z,22.11
2016-07-31T08:03:51.267Z,22.08
2016-07-31T08:04:51.250Z,22.22
2016-07-31T08:05:51.236Z,22.17
2016-07-31T08:06:51.222Z,22.18
2016-07-31T08:07:51.206Z,22.15
2016-07-31T08:08:51.194Z,22.3
2016-07-31T08:09:51.185Z,22.44
2016-07-31T08:10:51.163Z,22.5
2016-07-31T08:11:51.148Z,22.47
2016-07-31T08:12:51.138Z,22.5
2016-07-31T08:13:51.119Z,22.5
2016-07-31T08:14:51.109Z,22.47
2016-07-31T08:15:51.097Z,22.47
2016-07-31T08:16:51.079Z,22.47
2016-07-31T08:17:51.068Z,22.44
2016-07-31T08:18:51.050Z,22.48
2016-07-31T08:19:51.037Z,22.47
2016-07-31T08:20:51.030Z,22.5
2016-07-31T08:21:51.009Z,22.38
2016-07-31T08:22:50.995Z,22.44
2016-07-31T08:23:50.985Z,22.47
2016-07-31T08:24:50.967Z,22.35
2016-07-31T08:25:50.953Z,22.18
2016-07-31T08:26:50.940Z,22.2
2016-07-31T08:27:50.926Z,22.11
2016-07-31T08:28:50.912Z,22.15
2016-07-31T08:29:50.900Z,22.1
2016-07-31T08:30:50.884Z,22.07
2016-07-31T08:31:50.880Z,22.04
2016-07-31T08:32:50.855Z,22.07
2016-07-31T08:33:50.843Z,22.1
2016-07-31T08:34:50.828Z,22.13
2016-07-31T08:35:50.817Z,22.08
2016-07-31T08:36:50.802Z,21.98
2016-07-31T08:37:50.786Z,21.98
2016-07-31T08:38:50.772Z,21.95
2016-07-31T08:39:50.762Z,21.89
2016-07-31T08:40:50.745Z,21.95
2016-07-31T08:41:50.922Z,21.92
2016-07-31T08:42:50.887Z,21.95
2016-07-31T08:43:50.704Z,22
2016-07-31T08:44:50.690Z,22.08
2016-07-31T08:45:50.679Z,22.1
2016-07-31T08:46:50.664Z,22.11
2016-07-31T08:47:50.647Z,22.25
2016-07-31T08:48:50.645Z,22.41
2016-07-31T08:49:50.623Z,22.38
2016-07-31T08:50:50.609Z,22.3
2016-07-31T08:51:50.593Z,22.41
2016-07-31T08:52:50.584Z,22.48
2016-07-31T08:53:50.567Z,22.55
2016-07-31T08:54:50.557Z,22.65
2016-07-31T08:55:50.542Z,22.83
2016-07-31T08:56:50.529Z,22.84
2016-07-31T08:57:50.519Z,22.8
2016-07-31T08:58:50.505Z,22.72
2016-07-31T09:00:50.480Z,22.6
2016-07-31T09:01:50.466Z,22.78
2016-07-31T09:02:50.456Z,22.88
2016-07-31T09:03:50.444Z,23.15
2016-07-31T09:04:50.430Z,23.09
2016-07-31T09:05:50.420Z,23.06
2016-07-31T09:06:50.409Z,23.18
2016-07-31T09:07:50.397Z,23.23
2016-07-31T09:08:50.383Z,23.23
2016-07-31T09:09:50.370Z,23.36
2016-07-31T09:10:50.368Z,23.41
2016-07-31T09:11:50.345Z,23.36
2016-07-31T09:12:50.335Z,23.36
2016-07-31T09:13:50.321Z,23.28
2016-07-31T09:15:50.298Z,23.28
2016-07-31T09:16:50.289Z,23.25
2016-07-31T09:17:50.275Z,23.24
2016-07-31T09:18:50.260Z,23.17
2016-07-31T09:19:50.251Z,23.17
2016-07-31T09:20:50.236Z,23
2016-07-31T09:21:50.224Z,22.98
2016-07-31T09:22:50.213Z,22.72
2016-07-31T09:23:50.199Z,22.7
2016-07-31T09:24:50.181Z,22.59
2016-07-31T09:25:50.172Z,22.55
2016-07-31T09:26:50.157Z,22.47
2016-07-31T09:27:50.142Z,22.38
2016-07-31T09:28:50.131Z,22.39
2016-07-31T09:30:50.107Z,22.28
2016-07-31T09:31:50.088Z,22.26
2016-07-31T09:32:50.074Z,22.23
2016-07-31T09:33:50.059Z,22.26
2016-07-31T09:34:50.049Z,22.23
2016-07-31T09:35:50.030Z,22.28
2016-07-31T09:36:50.018Z,22.29
2016-07-31T09:37:50.007Z,22.26
2016-07-31T09:38:49.987Z,22.22
2016-07-31T09:39:49.978Z,22.17
2016-07-31T09:40:49.964Z,22.26
2016-07-31T09:41:49.948Z,22.45
2016-07-31T09:42:49.933Z,22.48
2016-07-31T09:43:49.923Z,22.63
2016-07-31T09:44:49.908Z,22.73
2016-07-31T09:45:49.892Z,22.78
2016-07-31T09:46:49.883Z,22.69
2016-07-31T09:47:49.868Z,22.68
2016-07-31T09:48:49.852Z,22.85
2016-07-31T09:49:49.843Z,22.84
2016-07-31T09:50:49.829Z,22.91
2016-07-31T09:51:49.812Z,23.03
2016-07-31T09:52:49.804Z,23
2016-07-31T09:53:49.790Z,23.03
2016-07-31T09:54:49.783Z,23.17
2016-07-31T09:55:49.763Z,23.17
2016-07-31T09:56:49.749Z,23.24
2016-07-31T09:57:49.749Z,23.25
2016-07-31T09:58:49.726Z,23.21
2016-07-31T09:59:49.712Z,23.27
2016-07-31T10:00:49.702Z,23.28
2016-07-31T10:01:49.686Z,23.43
2016-07-31T10:02:49.675Z,23.43
2016-07-31T10:03:49.664Z,23.44
2016-07-31T10:04:49.652Z,23.39
2016-07-31T10:05:49.645Z,23.32
2016-07-31T10:06:49.622Z,23.28
2016-07-31T10:07:49.613Z,23.28
2016-07-31T10:08:49.599Z,23.03
2016-07-31T10:09:49.586Z,22.93
2016-07-31T10:10:49.575Z,22.96
2016-07-31T10:11:49.562Z,22.88
2016-07-31T10:12:49.544Z,22.84
2016-07-31T10:13:49.547Z,22.94
2016-07-31T10:14:49.522Z,23
2016-07-31T10:15:49.509Z,23.13
2016-07-31T10:16:49.498Z,23.23
2016-07-31T10:17:49.495Z,23.13
2016-07-31T10:18:49.468Z,23.21
2016-07-31T10:19:49.458Z,23.09
2016-07-31T10:20:49.444Z,23.23
2016-07-31T10:21:49.429Z,23.2
2016-07-31T10:22:49.415Z,23.34
2016-07-31T10:23:49.404Z,23.47
2016-07-31T10:24:49.394Z,23.55
2016-07-31T10:25:49.377Z,23.58
2016-07-31T10:26:49.366Z,23.63
2016-07-31T10:27:49.351Z,23.78
2016-07-31T10:28:49.343Z,23.81
2016-07-31T10:29:49.332Z,23.76
2016-07-31T10:30:49.316Z,23.8
2016-07-31T10:31:49.307Z,23.76
2016-07-31T10:32:49.292Z,23.76
2016-07-31T10:33:49.281Z,23.87
2016-07-31T10:34:49.276Z,23.95
2016-07-31T10:35:49.258Z,23.95
2016-07-31T10:36:49.254Z,23.8
2016-07-31T10:37:49.234Z,23.8
2016-07-31T10:38:49.224Z,23.76
2016-07-31T10:39:49.214Z,23.65
2016-07-31T10:40:49.204Z,23.58
2016-07-31T10:41:49.190Z,23.68
2016-07-31T10:42:49.177Z,23.8
2016-07-31T10:43:49.167Z,23.78
2016-07-31T10:44:49.154Z,23.81
2016-07-31T10:45:49.139Z,23.8
2016-07-31T10:46:49.140Z,23.81
2016-07-31T10:47:49.119Z,23.78
2016-07-31T10:48:49.110Z,23.77
2016-07-31T10:49:49.093Z,23.83
2016-07-31T10:50:49.078Z,23.83
2016-07-31T10:51:49.066Z,23.8
2016-07-31T10:52:49.055Z,23.77
2016-07-31T10:53:49.044Z,23.74
2016-07-31T10:54:49.027Z,23.76
2016-07-31T10:55:49.020Z,23.63
2016-07-31T10:56:49.012Z,23.62
2016-07-31T10:57:48.997Z,23.55
2016-07-31T10:58:48.989Z,23.61
2016-07-31T10:59:48.966Z,23.58
2016-07-31T11:00:48.956Z,23.56
2016-07-31T11:01:48.946Z,23.58
2016-07-31T11:02:48.934Z,23.76
2016-07-31T11:03:48.924Z,23.78
2016-07-31T11:04:48.910Z,23.84
2016-07-31T11:05:48.898Z,23.91
2016-07-31T11:06:48.887Z,23.99
2016-07-31T11:07:48.878Z,23.98
2016-07-31T11:08:49.555Z,24.02
2016-07-31T11:09:48.855Z,24.02
2016-07-31T11:10:48.844Z,24.1
2016-07-31T11:11:48.829Z,24.16
2016-07-31T11:12:48.820Z,23.95
2016-07-31T11:13:48.810Z,23.84
2016-07-31T11:14:48.795Z,23.87
2016-07-31T11:15:48.786Z,23.83
2016-07-31T11:16:48.775Z,23.83
2016-07-31T11:17:48.759Z,23.81
2016-07-31T11:18:48.750Z,23.78
2016-07-31T11:19:48.738Z,23.78
2016-07-31T11:20:48.724Z,23.63
2016-07-31T11:21:48.712Z,23.61
2016-07-31T11:22:48.702Z,23.62
2016-07-31T11:23:48.686Z,23.58
2016-07-31T11:24:49.371Z,23.55
2016-07-31T11:25:48.664Z,23.47
2016-07-31T11:26:48.705Z,23.47
2016-07-31T11:27:48.641Z,23.5
2016-07-31T11:28:48.626Z,23.34
2016-07-31T11:29:48.612Z,23.18
2016-07-31T11:30:48.601Z,23.03
2016-07-31T11:31:48.585Z,22.96
2016-07-31T11:32:48.572Z,22.9
2016-07-31T11:33:48.559Z,22.81
2016-07-31T11:34:48.547Z,22.69
2016-07-31T11:35:48.535Z,22.59
2016-07-31T11:36:48.524Z,22.44
2016-07-31T11:37:48.503Z,22.39
2016-07-31T11:38:48.491Z,22.25
2016-07-31T11:39:48.476Z,22.14
2016-07-31T11:40:48.462Z,22.15
2016-07-31T11:41:48.450Z,22.11
2016-07-31T11:42:48.436Z,22.06
2016-07-31T11:43:48.419Z,22.02
2016-07-31T11:44:48.404Z,21.93
2016-07-31T11:45:48.390Z,21.88
2016-07-31T11:46:48.374Z,21.77
2016-07-31T11:47:48.363Z,21.76
2016-07-31T11:48:48.353Z,21.77
2016-07-31T11:49:48.332Z,21.64
2016-07-31T11:50:48.312Z,21.58
2016-07-31T11:51:48.300Z,21.52
2016-07-31T11:52:48.285Z,21.43
2016-07-31T11:53:48.270Z,21.33
2016-07-31T11:54:48.256Z,21.2
2016-07-31T11:55:48.241Z,21.21
2016-07-31T11:56:48.222Z,21.17
2016-07-31T11:57:48.209Z,21.17
2016-07-31T11:58:48.192Z,21.03
2016-07-31T11:59:48.176Z,20.97
2016-07-31T12:00:48.163Z,20.93
2016-07-31T12:01:48.149Z,20.82
2016-07-31T12:02:48.820Z,20.72
2016-07-31T12:03:48.111Z,20.7
2016-07-31T12:04:48.099Z,20.66
2016-07-31T12:05:48.082Z,20.65
2016-07-31T12:06:48.073Z,20.59
2016-07-31T12:07:48.052Z,20.56
2016-07-31T12:08:48.034Z,20.47
2016-07-31T12:09:48.029Z,20.39
2016-07-31T12:10:48.003Z,20.31
2016-07-31T12:11:47.984Z,20.37
2016-07-31T12:12:47.972Z,20.4
2016-07-31T12:13:48.647Z,20.39
2016-07-31T12:14:47.938Z,20.39
2016-07-31T12:15:47.923Z,20.39
2016-07-31T12:16:47.906Z,20.37
2016-07-31T12:17:47.892Z,20.41
2016-07-31T12:18:47.874Z,20.34
2016-07-31T12:19:47.856Z,20.39
2016-07-31T12:20:47.841Z,20.36
2016-07-31T12:21:47.822Z,20.36
2016-07-31T12:22:47.808Z,20.34
2016-07-31T12:23:47.793Z,20.28
2016-07-31T12:24:47.776Z,20.26
2016-07-31T12:25:47.769Z,20.16
2016-07-31T12:26:47.745Z,20.16
2016-07-31T12:27:47.723Z,20.14
2016-07-31T12:28:47.708Z,20.06
2016-07-31T12:29:47.693Z,20.06
2016-07-31T12:30:47.675Z,20.09
2016-07-31T12:31:47.657Z,20.06
2016-07-31T12:32:47.642Z,20.09
2016-07-31T12:33:47.623Z,20.04
2016-07-31T12:34:47.619Z,20.07
2016-07-31T12:35:47.591Z,20.09
2016-07-31T12:36:47.575Z,20.09
2016-07-31T12:37:47.562Z,20.07
2016-07-31T12:38:47.539Z,20.1
2016-07-31T12:39:47.522Z,20.04
2016-07-31T12:40:47.508Z,20.07
2016-07-31T12:41:47.489Z,20
2016-07-31T12:42:47.469Z,20.03
2016-07-31T12:43:47.456Z,20.03
2016-07-31T12:44:47.438Z,20.07
2016-07-31T12:46:47.404Z,20.09
2016-07-31T12:47:48.213Z,20.19
2016-07-31T12:48:47.367Z,20.19
2016-07-31T12:49:47.349Z,20.16
2016-07-31T12:50:47.335Z,20.22
2016-07-31T12:51:47.315Z,20.26
2016-07-31T12:52:47.300Z,20.31
2016-07-31T12:53:47.286Z,20.37
2016-07-31T12:54:47.267Z,20.34
2016-07-31T12:55:47.253Z,20.34
2016-07-31T12:56:47.232Z,20.4
2016-07-31T12:57:47.215Z,20.48
2016-07-31T12:58:47.203Z,20.51
2016-07-31T12:59:47.184Z,20.55
2016-07-31T13:00:47.173Z,20.65
2016-07-31T13:01:47.151Z,20.63
2016-07-31T13:02:47.137Z,20.7
2016-07-31T13:03:47.114Z,20.85
2016-07-31T13:04:47.103Z,20.92
2016-07-31T13:05:47.085Z,21
2016-07-31T13:06:47.070Z,21.05
2016-07-31T13:07:47.065Z,21.14